Time;durP1;ratioP1;P1;durP2;ratioP2;P2;SDS_P1;SDS_P2;PMS_P1;PMS_P2;Temp;Humidity;BMP_temperature;BMP_pressure;BME280_temperature;BME280_humidity;BME280_pressure;Samples;Min_cycle;Max_cycle;Signal;HPM_P1;HPM_P2
2024/02/27 00:00:13;;;;;;;;;19.67;18.67;;;;;;;;5074797;27;45323;-50
2024/02/27 00:02:38;;;;;;;;;25.00;21.00;;;;;;;;5076366;28;45626;-48
2024/02/27 00:05:03;;;;;;;;;24.33;19.33;;;;;;;;5076627;27;45508;-49
2024/02/27 00:07:28;;;;;;;;;24.67;23.00;;;;;;;;5081931;27;47323;-49
2024/02/27 00:09:54;;;;;;;;;21.33;20.33;;;;;;;;5088282;27;45459;-51
2024/02/27 00:12:19;;;;;;;;;26.67;23.00;;;;;;;;5082598;27;45307;-52
2024/02/27 00:14:45;;;;;;;;;24.33;23.33;;;;;;;;5078928;27;45585;-51
2024/02/27 00:17:10;;;;;;;;;27.67;24.33;;;;;;;;5078023;27;46354;-51
2024/02/27 00:19:35;;;;;;;;;25.67;22.67;;;;;;;;5079440;27;45270;-49
2024/02/27 00:22:00;;;;;;;;;23.00;19.33;;;;;;;;5081813;27;45431;-50
2024/02/27 00:24:25;;;;;;;;;31.67;28.67;;;;;;;;5086879;27;45609;-49
2024/02/27 00:26:51;;;;;;;;;25.00;23.67;;;;;;;;5078555;27;45420;-49
2024/02/27 00:29:18;;;;;;;;;31.67;26.67;;;;;;;;5071591;27;45436;-48
2024/02/27 00:31:43;;;;;;;;;26.67;25.33;;;;;;;;5081219;27;45528;-48
2024/02/27 00:34:08;;;;;;;;;13.00;10.33;;;;;;;;5084951;27;45257;-53
2024/02/27 00:36:34;;;;;;;;;29.33;28.33;;;;;;;;5082249;27;45804;-51
2024/02/27 00:38:59;;;;;;;;;24.00;24.00;;;;;;;;5084614;27;45275;-52
2024/02/27 00:41:24;;;;;;;;;24.33;22.67;;;;;;;;5078999;27;45267;-52
2024/02/27 00:43:49;;;;;;;;;30.33;22.00;;;;;;;;5087272;27;45206;-50
2024/02/27 00:46:14;;;;;;;;;22.67;18.67;;;;;;;;5084076;27;46462;-49
2024/02/27 00:48:40;;;;;;;;;31.67;26.67;;;;;;;;5084110;27;45243;-48
2024/02/27 00:51:05;;;;;;;;;24.33;23.00;;;;;;;;5083629;27;45164;-49
2024/02/27 00:53:30;;;;;;;;;27.67;24.33;;;;;;;;5086841;27;46510;-48
2024/02/27 00:55:55;;;;;;;;;36.33;31.67;;;;;;;;5083913;27;46019;-52
2024/02/27 00:58:22;;;;;;;;;27.00;25.00;;;;;;;;5082703;27;45432;-50
2024/02/27 01:00:47;;;;;;;;;36.00;29.33;;;;;;;;5076622;27;45269;-52
2024/02/27 01:03:12;;;;;;;;;29.33;27.67;;;;;;;;5078245;27;45659;-51
2024/02/27 01:05:38;;;;;;;;;32.67;27.00;;;;;;;;5077318;27;45753;-52
2024/02/27 01:08:03;;;;;;;;;25.33;23.67;;;;;;;;5080955;27;45321;-50
2024/02/27 01:10:28;;;;;;;;;28.33;26.00;;;;;;;;5082279;27;45530;-50
2024/02/27 01:12:53;;;;;;;;;32.67;26.33;;;;;;;;5081833;27;45577;-50
2024/02/27 01:15:19;;;;;;;;;33.67;29.67;;;;;;;;5079191;27;47191;-49
2024/02/27 01:17:44;;;;;;;;;37.00;34.50;;;;;;;;5079742;27;45567;-49
2024/02/27 01:20:10;;;;;;;;;29.33;25.67;;;;;;;;5080730;27;45504;-49
2024/02/27 01:22:35;;;;;;;;;34.67;29.00;;;;;;;;5080518;27;45402;-49
2024/02/27 01:25:00;;;;;;;;;24.67;24.00;;;;;;;;5081068;27;46937;-49
2024/02/27 01:27:26;;;;;;;;;33.33;29.00;;;;;;;;5073097;27;45437;-48
2024/02/27 01:29:52;;;;;;;;;31.33;28.00;;;;;;;;5081158;27;45349;-49
2024/02/27 01:32:17;;;;;;;;;28.33;27.00;;;;;;;;5083238;27;45495;-48
2024/02/27 01:34:42;;;;;;;;;32.67;29.00;;;;;;;;5083450;27;46222;-53
2024/02/27 01:37:07;;;;;;;;;33.67;28.00;;;;;;;;5083138;27;45251;-51
2024/02/27 01:39:33;;;;;;;;;29.33;27.33;;;;;;;;5085561;27;45211;-52
2024/02/27 01:41:59;;;;;;;;;28.00;24.67;;;;;;;;5082280;27;45565;-53
2024/02/27 01:44:24;;;;;;;;;31.00;28.33;;;;;;;;5080748;27;45390;-51
2024/02/27 01:46:50;;;;;;;;;35.00;30.33;;;;;;;;5082360;27;45277;-48
2024/02/27 01:49:15;;;;;;;;;34.33;23.33;;;;;;;;5084480;27;45368;-52
2024/02/27 01:51:42;;;;;;;;;30.33;25.33;;;;;;;;5083283;27;45440;-51
2024/02/27 01:54:07;;;;;;;;;30.67;24.00;;;;;;;;5080742;27;45672;-51
2024/02/27 01:56:33;;;;;;;;;15.67;15.67;;;;;;;;5083090;27;45240;-52
2024/02/27 01:58:58;;;;;;;;;32.67;29.33;;;;;;;;5086104;27;45457;-52
2024/02/27 02:01:24;;;;;;;;;26.67;20.67;;;;;;;;5083170;27;45386;-50
2024/02/27 02:03:51;;;;;;;;;31.33;24.67;;;;;;;;5068900;27;46072;-51
2024/02/27 02:06:16;;;;;;;;;25.67;21.67;;;;;;;;5077052;27;45452;-50
2024/02/27 02:08:42;;;;;;;;;31.00;27.33;;;;;;;;5075122;27;45432;-49
2024/02/27 02:11:08;;;;;;;;;34.67;29.00;;;;;;;;5077959;27;45388;-51
2024/02/27 02:13:34;;;;;;;;;24.33;24.33;;;;;;;;5082313;27;46593;-49
2024/02/27 02:15:59;;;;;;;;;26.00;19.00;;;;;;;;5081595;27;45238;-53
2024/02/27 02:18:24;;;;;;;;;34.33;28.00;;;;;;;;5080141;27;45345;-52
2024/02/27 02:20:49;;;;;;;;;32.33;28.67;;;;;;;;5080178;27;45512;-52
2024/02/27 02:23:14;;;;;;;;;33.67;30.00;;;;;;;;5080284;27;46336;-52
2024/02/27 02:25:40;;;;;;;;;23.67;23.67;;;;;;;;5079008;28;45424;-53
2024/02/27 02:28:05;;;;;;;;;26.67;24.67;;;;;;;;5083095;27;45322;-50
2024/02/27 02:30:30;;;;;;;;;36.33;25.00;;;;;;;;5083017;27;45590;-50
2024/02/27 02:32:56;;;;;;;;;28.67;24.33;;;;;;;;5085510;27;45295;-49
2024/02/27 02:35:21;;;;;;;;;30.67;27.33;;;;;;;;5082780;27;45235;-51
2024/02/27 02:37:48;;;;;;;;;30.00;24.33;;;;;;;;5085944;27;45412;-51
2024/02/27 02:40:14;;;;;;;;;31.33;28.33;;;;;;;;5082135;27;45472;-48
2024/02/27 02:42:40;;;;;;;;;27.67;25.00;;;;;;;;5079596;27;46952;-51
2024/02/27 02:45:05;;;;;;;;;30.00;27.00;;;;;;;;5081285;27;45539;-53
2024/02/27 02:47:30;;;;;;;;;27.67;25.67;;;;;;;;5084606;27;45375;-49
2024/02/27 02:49:56;;;;;;;;;30.00;23.00;;;;;;;;5082504;27;45262;-51
2024/02/27 02:52:21;;;;;;;;;27.33;25.33;;;;;;;;5083657;27;45972;-50
2024/02/27 02:54:46;;;;;;;;;26.00;22.67;;;;;;;;5082353;27;45259;-49
2024/02/27 02:57:11;;;;;;;;;30.00;29.33;;;;;;;;5082429;27;45432;-48
2024/02/27 02:59:36;;;;;;;;;31.00;26.67;;;;;;;;5082592;27;45562;-49
2024/02/27 03:02:02;;;;;;;;;30.33;28.00;;;;;;;;5076323;27;46251;-52
2024/02/27 03:04:27;;;;;;;;;28.67;24.00;;;;;;;;5077179;27;45297;-48
2024/02/27 03:06:52;;;;;;;;;29.33;28.33;;;;;;;;5082788;27;45537;-50
2024/02/27 03:09:18;;;;;;;;;37.00;30.00;;;;;;;;5080401;27;45573;-50
2024/02/27 03:11:43;;;;;;;;;29.00;26.67;;;;;;;;5077732;27;47105;-52
2024/02/27 03:14:09;;;;;;;;;29.67;26.00;;;;;;;;5065319;28;45373;-50
2024/02/27 03:16:34;;;;;;;;;25.33;19.33;;;;;;;;5080687;27;45501;-51
2024/02/27 03:18:59;;;;;;;;;29.33;28.00;;;;;;;;5080116;27;45256;-52
2024/02/27 03:21:24;;;;;;;;;28.33;25.00;;;;;;;;5076167;27;46757;-51
2024/02/27 03:23:49;;;;;;;;;27.00;25.00;;;;;;;;5079676;27;45286;-52
2024/02/27 03:26:16;;;;;;;;;29.33;26.33;;;;;;;;5077862;27;45293;-51
2024/02/27 03:28:41;;;;;;;;;27.33;23.33;;;;;;;;5073282;27;45683;-51
2024/02/27 03:31:06;;;;;;;;;28.33;25.33;;;;;;;;5080703;27;46006;-51
2024/02/27 03:33:31;;;;;;;;;32.00;27.67;;;;;;;;5080184;27;45527;-49
2024/02/27 03:35:57;;;;;;;;;29.33;23.67;;;;;;;;5081323;27;45380;-50
2024/02/27 03:38:22;;;;;;;;;35.33;26.67;;;;;;;;5080572;27;45448;-48
2024/02/27 03:40:47;;;;;;;;;24.67;21.67;;;;;;;;5079093;27;45535;-49
2024/02/27 03:43:12;;;;;;;;;28.00;25.33;;;;;;;;5078600;27;45299;-50
2024/02/27 03:45:37;;;;;;;;;32.67;29.00;;;;;;;;5082831;27;45599;-51
2024/02/27 03:48:03;;;;;;;;;30.00;22.00;;;;;;;;5080227;27;45569;-50
2024/02/27 03:50:28;;;;;;;;;25.67;25.67;;;;;;;;5081156;27;46466;-51
2024/02/27 03:52:53;;;;;;;;;28.33;27.00;;;;;;;;5081144;27;45702;-50
2024/02/27 03:55:18;;;;;;;;;30.67;26.67;;;;;;;;5082573;27;45270;-49
2024/02/27 03:57:43;;;;;;;;;37.67;30.67;;;;;;;;5081467;27;45529;-49
2024/02/27 04:00:09;;;;;;;;;30.67;26.00;;;;;;;;5081965;27;45591;-49
2024/02/27 04:02:34;;;;;;;;;38.00;29.33;;;;;;;;5078388;27;45376;-52
2024/02/27 04:04:59;;;;;;;;;28.00;24.67;;;;;;;;5082395;27;45370;-51
2024/02/27 04:07:24;;;;;;;;;32.00;26.67;;;;;;;;5079214;27;45352;-50
2024/02/27 04:09:49;;;;;;;;;38.33;29.00;;;;;;;;5081230;27;46302;-50
2024/02/27 04:12:15;;;;;;;;;30.33;24.33;;;;;;;;5082113;27;45542;-51
2024/02/27 04:14:40;;;;;;;;;31.00;29.00;;;;;;;;5083264;27;45394;-50
2024/02/27 04:17:05;;;;;;;;;36.67;24.00;;;;;;;;5074699;27;45618;-48
2024/02/27 04:19:30;;;;;;;;;30.67;25.33;;;;;;;;5082723;27;45414;-51
2024/02/27 04:21:55;;;;;;;;;21.67;16.67;;;;;;;;5082919;27;45274;-49
2024/02/27 04:24:21;;;;;;;;;32.00;27.67;;;;;;;;5082652;27;45611;-52
2024/02/27 04:26:46;;;;;;;;;30.67;28.00;;;;;;;;5077210;27;45465;-49
2024/02/27 04:29:11;;;;;;;;;31.67;26.67;;;;;;;;5082927;27;46643;-48
2024/02/27 04:31:36;;;;;;;;;24.67;24.00;;;;;;;;5083627;27;45340;-51
2024/02/27 04:34:02;;;;;;;;;27.67;22.00;;;;;;;;5081727;27;45523;-49
2024/02/27 04:36:27;;;;;;;;;31.33;29.33;;;;;;;;5084779;27;45592;-51
2024/02/27 04:38:52;;;;;;;;;29.33;25.33;;;;;;;;5084237;27;45675;-49
2024/02/27 04:41:17;;;;;;;;;29.67;27.67;;;;;;;;5084603;27;45267;-48
2024/02/27 04:43:42;;;;;;;;;26.67;24.33;;;;;;;;5083250;27;45305;-49
2024/02/27 04:46:08;;;;;;;;;31.33;27.33;;;;;;;;5085729;27;45249;-50
2024/02/27 04:48:33;;;;;;;;;29.33;24.00;;;;;;;;5084567;27;46543;-52
2024/02/27 04:50:58;;;;;;;;;36.67;32.33;;;;;;;;5080146;27;45337;-49
2024/02/27 04:53:23;;;;;;;;;24.00;24.00;;;;;;;;5082443;27;45232;-51
2024/02/27 04:55:48;;;;;;;;;29.00;24.00;;;;;;;;5086072;27;45470;-52
2024/02/27 04:58:14;;;;;;;;;35.00;24.33;;;;;;;;5084500;27;45464;-51
2024/02/27 05:00:39;;;;;;;;;24.33;21.67;;;;;;;;5082509;27;45673;-52
2024/02/27 05:03:04;;;;;;;;;30.33;25.67;;;;;;;;5078388;27;45315;-50
2024/02/27 05:05:29;;;;;;;;;31.33;28.00;;;;;;;;5073987;27;45944;-53
2024/02/27 05:07:54;;;;;;;;;29.67;26.00;;;;;;;;5081611;27;46291;-50
2024/02/27 05:10:20;;;;;;;;;29.33;29.00;;;;;;;;5080296;27;45487;-52
2024/02/27 05:12:45;;;;;;;;;32.00;30.00;;;;;;;;5074077;27;45492;-52
2024/02/27 05:15:11;;;;;;;;;37.00;30.33;;;;;;;;5080937;27;45206;-49
2024/02/27 05:17:36;;;;;;;;;26.00;26.00;;;;;;;;5081698;27;46443;-49
2024/02/27 05:20:02;;;;;;;;;30.33;27.67;;;;;;;;5079897;27;45470;-51
2024/02/27 05:22:28;;;;;;;;;35.33;30.33;;;;;;;;5079745;27;45327;-51
2024/02/27 05:24:53;;;;;;;;;30.00;23.67;;;;;;;;5080948;27;45238;-52
2024/02/27 05:27:19;;;;;;;;;21.33;18.33;;;;;;;;5072272;27;46353;-49
2024/02/27 05:29:44;;;;;;;;;31.00;22.67;;;;;;;;5084370;27;45616;-51
2024/02/27 05:32:09;;;;;;;;;26.00;24.00;;;;;;;;5079866;27;45790;-48
2024/02/27 05:34:35;;;;;;;;;30.00;28.33;;;;;;;;5085398;27;45279;-50
2024/02/27 05:37:00;;;;;;;;;26.67;22.67;;;;;;;;5082989;27;45366;-52
2024/02/27 05:39:25;;;;;;;;;30.33;24.67;;;;;;;;5080216;27;45369;-50
2024/02/27 05:41:51;;;;;;;;;27.67;24.33;;;;;;;;5072665;27;45243;-51
2024/02/27 05:44:16;;;;;;;;;37.67;27.67;;;;;;;;5078284;27;45247;-50
2024/02/27 05:46:41;;;;;;;;;27.00;23.00;;;;;;;;5077508;27;46257;-50
2024/02/27 05:49:07;;;;;;;;;27.67;27.67;;;;;;;;5083991;27;45618;-52
2024/02/27 05:51:32;;;;;;;;;30.00;29.00;;;;;;;;5083246;27;45572;-50
2024/02/27 05:53:57;;;;;;;;;29.00;26.67;;;;;;;;5082674;27;45384;-52
2024/02/27 05:56:22;;;;;;;;;30.33;25.67;;;;;;;;5080600;27;45482;-50
2024/02/27 05:58:48;;;;;;;;;32.00;28.00;;;;;;;;5084379;27;45507;-50
2024/02/27 06:01:14;;;;;;;;;27.00;24.00;;;;;;;;5080013;27;45341;-51
2024/02/27 06:03:40;;;;;;;;;26.67;23.00;;;;;;;;5075012;27;45417;-50
2024/02/27 06:06:06;;;;;;;;;27.33;25.00;;;;;;;;5073290;27;46111;-51
2024/02/27 06:08:31;;;;;;;;;28.33;25.00;;;;;;;;5083325;27;45853;-49
2024/02/27 06:10:56;;;;;;;;;29.00;22.33;;;;;;;;5081896;27;45410;-49
2024/02/27 06:13:22;;;;;;;;;33.00;26.00;;;;;;;;5082918;27;45354;-52
2024/02/27 06:15:48;;;;;;;;;31.67;28.00;;;;;;;;5083268;27;46402;-49
2024/02/27 06:18:13;;;;;;;;;35.67;28.33;;;;;;;;5083949;27;45380;-49
2024/02/27 06:23:26;;;;;;;;;35.00;26.33;;;;;;;;5083020;27;45331;-48
2024/02/27 06:25:51;;;;;;;;;33.00;29.33;;;;;;;;5078485;27;45917;-49
2024/02/27 06:28:16;;;;;;;;;36.00;28.00;;;;;;;;5072517;27;45500;-52
2024/02/27 06:30:41;;;;;;;;;27.00;25.00;;;;;;;;5087304;27;45601;-49
2024/02/27 06:33:07;;;;;;;;;29.67;26.33;;;;;;;;5085491;27;45386;-52
2024/02/27 06:35:32;;;;;;;;;24.67;23.67;;;;;;;;5078209;27;46028;-49
2024/02/27 06:37:57;;;;;;;;;30.00;25.33;;;;;;;;5098689;27;45448;-51
2024/02/27 06:40:22;;;;;;;;;30.33;27.00;;;;;;;;5087392;27;45383;-51
2024/02/27 06:42:47;;;;;;;;;33.33;26.33;;;;;;;;5083869;27;45609;-48
2024/02/27 06:45:13;;;;;;;;;34.67;28.67;;;;;;;;5080967;27;45497;-48
2024/02/27 06:47:41;;;;;;;;;36.00;27.33;;;;;;;;5085179;27;45214;-52
2024/02/27 06:50:07;;;;;;;;;32.00;28.00;;;;;;;;5085984;27;45246;-51
2024/02/27 06:52:33;;;;;;;;;32.67;29.33;;;;;;;;5087921;27;45370;-49
2024/02/27 06:54:58;;;;;;;;;37.33;29.33;;;;;;;;5082694;27;45254;-51
2024/02/27 06:57:23;;;;;;;;;35.67;30.67;;;;;;;;5084564;27;45510;-49
2024/02/27 06:59:48;;;;;;;;;36.00;29.67;;;;;;;;5079296;27;45579;-48
2024/02/27 07:02:13;;;;;;;;;31.25;28.50;;;;;;;;5075441;28;45566;-48
2024/02/27 07:04:38;;;;;;;;;35.75;30.00;;;;;;;;5075770;28;45482;-50
2024/02/27 07:07:04;;;;;;;;;36.67;29.33;;;;;;;;5077313;27;45416;-48
2024/02/27 07:09:30;;;;;;;;;41.33;34.00;;;;;;;;5079468;27;45409;-50
2024/02/27 07:11:55;;;;;;;;;35.33;24.00;;;;;;;;5079476;28;45359;-52
2024/02/27 07:14:20;;;;;;;;;33.33;30.67;;;;;;;;5078497;27;45943;-50
2024/02/27 07:16:46;;;;;;;;;32.00;29.00;;;;;;;;5078311;28;45508;-49
2024/02/27 07:19:11;;;;;;;;;37.67;33.33;;;;;;;;5078227;27;45532;-50
2024/02/27 07:21:36;;;;;;;;;27.50;24.50;;;;;;;;5076576;27;45581;-53
2024/02/27 07:24:01;;;;;;;;;35.67;30.00;;;;;;;;5078580;27;46711;-50
2024/02/27 07:26:27;;;;;;;;;37.33;30.33;;;;;;;;5077750;27;45771;-52
2024/02/27 07:28:52;;;;;;;;;32.33;28.33;;;;;;;;5077492;27;45543;-51
2024/02/27 07:31:18;;;;;;;;;35.50;33.00;;;;;;;;5077829;27;45559;-50
2024/02/27 07:33:44;;;;;;;;;24.00;22.33;;;;;;;;5076171;27;46152;-50
2024/02/27 07:36:09;;;;;;;;;36.75;34.00;;;;;;;;5057924;28;45337;-51
2024/02/27 07:38:34;;;;;;;;;35.00;28.67;;;;;;;;5073344;27;45645;-49
2024/02/27 07:40:59;;;;;;;;;35.33;32.00;;;;;;;;5076306;27;45413;-49
2024/02/27 07:43:25;;;;;;;;;35.25;34.00;;;;;;;;5077069;27;45575;-50
2024/02/27 07:45:51;;;;;;;;;28.50;23.00;;;;;;;;5076857;28;45310;-51
2024/02/27 07:48:16;;;;;;;;;33.00;27.67;;;;;;;;5065073;28;45925;-51
2024/02/27 07:50:41;;;;;;;;;39.25;29.50;;;;;;;;5070440;28;45429;-49
2024/02/27 07:53:07;;;;;;;;;39.50;34.75;;;;;;;;5069891;28;45491;-49
2024/02/27 07:55:32;;;;;;;;;38.00;30.00;;;;;;;;5074503;28;45240;-50
2024/02/27 07:57:57;;;;;;;;;36.67;32.00;;;;;;;;5070470;28;45474;-50
2024/02/27 08:00:22;;;;;;;;;36.33;33.00;;;;;;;;5060693;27;45321;-47
2024/02/27 08:02:47;;;;;;;;;44.00;36.50;;;;;;;;5062535;28;45398;-48
2024/02/27 08:05:13;;;;;;;;;41.75;35.50;;;;;;;;5075312;28;45365;-48
2024/02/27 08:07:38;;;;;;;;;37.50;31.25;;;;;;;;5078810;27;45531;-49
2024/02/27 08:10:03;;;;;;;;;42.00;30.50;;;;;;;;5077627;28;45428;-48
2024/02/27 08:12:28;;;;;;;;;39.50;31.50;;;;;;;;5077860;27;46411;-51
2024/02/27 08:14:53;;;;;;;;;33.67;31.67;;;;;;;;5079108;27;45363;-48
2024/02/27 08:17:19;;;;;;;;;32.00;27.00;;;;;;;;5076664;27;45510;-51
2024/02/27 08:19:44;;;;;;;;;29.00;28.00;;;;;;;;5067313;28;45429;-48
2024/02/27 08:22:10;;;;;;;;;33.33;28.00;;;;;;;;5077792;27;46620;-50
2024/02/27 08:24:35;;;;;;;;;33.00;29.67;;;;;;;;5079156;27;45267;-51
2024/02/27 08:27:00;;;;;;;;;33.67;29.00;;;;;;;;5074457;27;45355;-50
2024/02/27 08:29:25;;;;;;;;;34.33;30.00;;;;;;;;5078380;28;45434;-48
2024/02/27 08:31:50;;;;;;;;;33.67;25.00;;;;;;;;5072856;28;46533;-50
2024/02/27 08:34:16;;;;;;;;;37.00;31.00;;;;;;;;5076914;28;45666;-50
2024/02/27 08:36:41;;;;;;;;;39.33;34.67;;;;;;;;5072732;28;45262;-48
2024/02/27 08:39:07;;;;;;;;;30.00;25.33;;;;;;;;5078265;27;45467;-51
2024/02/27 08:41:34;;;;;;;;;29.33;25.00;;;;;;;;5073017;27;46561;-49
2024/02/27 08:43:59;;;;;;;;;35.67;30.00;;;;;;;;5073128;27;45341;-50
2024/02/27 08:46:25;;;;;;;;;35.33;28.67;;;;;;;;5068773;27;45438;-51
2024/02/27 08:48:50;;;;;;;;;36.67;35.00;;;;;;;;5078120;27;45211;-47
2024/02/27 08:51:16;;;;;;;;;41.00;30.33;;;;;;;;5072123;27;45968;-50
2024/02/27 08:53:41;;;;;;;;;31.67;29.67;;;;;;;;5078747;27;45348;-47
2024/02/27 08:56:06;;;;;;;;;41.67;30.33;;;;;;;;5081006;27;45364;-50
2024/02/27 08:58:33;;;;;;;;;33.67;28.00;;;;;;;;5082033;27;45413;-49
2024/02/27 09:00:58;;;;;;;;;33.33;27.33;;;;;;;;5081911;28;46579;-51
2024/02/27 09:03:23;;;;;;;;;40.00;33.00;;;;;;;;5074849;27;45373;-50
2024/02/27 09:05:48;;;;;;;;;29.33;25.00;;;;;;;;5082179;27;45464;-49
2024/02/27 09:08:16;;;;;;;;;29.00;25.33;;;;;;;;5081551;27;45492;-49
2024/02/27 09:10:45;;;;;;;;;26.67;25.67;;;;;;;;5068916;27;46182;-46
2024/02/27 09:13:10;;;;;;;;;45.67;31.00;;;;;;;;5068007;28;45351;-49
2024/02/27 09:15:35;;;;;;;;;31.67;27.33;;;;;;;;5075319;27;45562;-47
2024/02/27 09:18:00;;;;;;;;;37.67;32.00;;;;;;;;5075332;27;45272;-51
2024/02/27 09:20:25;;;;;;;;;33.00;25.00;;;;;;;;5071796;27;45441;-47
2024/02/27 09:22:50;;;;;;;;;34.33;30.00;;;;;;;;5080284;27;45778;-47
2024/02/27 09:25:16;;;;;;;;;40.00;33.67;;;;;;;;5085383;27;45499;-46
2024/02/27 09:27:41;;;;;;;;;27.33;27.33;;;;;;;;5082705;27;45538;-48
2024/02/27 09:30:06;;;;;;;;;35.75;32.50;;;;;;;;5086122;27;45509;-47
2024/02/27 09:32:31;;;;;;;;;35.33;29.00;;;;;;;;5083950;27;45500;-48
2024/02/27 09:34:57;;;;;;;;;34.33;29.33;;;;;;;;5084574;27;45516;-47
2024/02/27 09:37:22;;;;;;;;;31.00;28.33;;;;;;;;5083253;27;45294;-48
2024/02/27 09:39:47;;;;;;;;;25.33;24.33;;;;;;;;5085518;27;45839;-53
2024/02/27 09:42:13;;;;;;;;;31.00;30.33;;;;;;;;5082014;27;45513;-50
2024/02/27 09:44:42;;;;;;;;;32.00;27.00;;;;;;;;5086147;27;45406;-48
2024/02/27 09:47:07;;;;;;;;;27.00;25.67;;;;;;;;5076600;27;45545;-48
2024/02/27 09:49:36;;;;;;;;;30.33;23.67;;;;;;;;5083391;27;46701;-49
2024/02/27 09:52:03;;;;;;;;;32.00;25.33;;;;;;;;5083584;27;45407;-49
2024/02/27 09:54:28;;;;;;;;;33.67;25.67;;;;;;;;5082287;27;45220;-46
2024/02/27 09:56:54;;;;;;;;;30.67;28.33;;;;;;;;5078716;28;45323;-47
2024/02/27 09:59:19;;;;;;;;;28.33;22.00;;;;;;;;5081920;27;45319;-47
2024/02/27 10:01:47;;;;;;;;;27.33;24.00;;;;;;;;5083403;27;45413;-48
2024/02/27 10:04:12;;;;;;;;;31.00;24.67;;;;;;;;5081054;27;45379;-46
2024/02/27 10:06:38;;;;;;;;;31.67;26.33;;;;;;;;5080568;27;45477;-47
2024/02/27 10:09:05;;;;;;;;;33.00;27.00;;;;;;;;5080356;27;45333;-50
2024/02/27 10:11:31;;;;;;;;;28.00;26.67;;;;;;;;5080795;27;45317;-49
2024/02/27 10:13:56;;;;;;;;;26.00;23.00;;;;;;;;5077961;27;45632;-48
2024/02/27 10:16:22;;;;;;;;;28.33;27.33;;;;;;;;5079362;28;45962;-50
2024/02/27 10:18:51;;;;;;;;;28.33;23.67;;;;;;;;5079545;27;45386;-48
2024/02/27 10:21:19;;;;;;;;;29.00;26.33;;;;;;;;5079673;27;45392;-51
2024/02/27 10:23:44;;;;;;;;;36.33;29.00;;;;;;;;5079586;27;45501;-50
2024/02/27 10:26:10;;;;;;;;;28.67;26.33;;;;;;;;5078372;27;45577;-50
2024/02/27 10:28:36;;;;;;;;;25.00;23.00;;;;;;;;5077701;28;46757;-50
2024/02/27 10:31:06;;;;;;;;;26.67;23.33;;;;;;;;5080774;27;45212;-50
2024/02/27 10:33:31;;;;;;;;;27.33;27.33;;;;;;;;5080446;28;45281;-47
2024/02/27 10:35:56;;;;;;;;;21.33;20.33;;;;;;;;5080652;27;45363;-52
2024/02/27 10:38:22;;;;;;;;;24.00;23.00;;;;;;;;5079894;27;46643;-50
2024/02/27 10:40:47;;;;;;;;;26.00;22.00;;;;;;;;5076898;28;45250;-49
2024/02/27 10:43:13;;;;;;;;;26.33;22.00;;;;;;;;5080033;27;45460;-49
2024/02/27 10:45:38;;;;;;;;;28.67;23.33;;;;;;;;5080489;27;45236;-51
2024/02/27 10:48:04;;;;;;;;;24.00;19.67;;;;;;;;5075390;28;46080;-50
2024/02/27 10:50:30;;;;;;;;;24.00;22.33;;;;;;;;5080200;27;45402;-49
2024/02/27 10:52:57;;;;;;;;;23.33;20.67;;;;;;;;5080586;27;45281;-50
2024/02/27 10:55:23;;;;;;;;;32.00;24.00;;;;;;;;5073816;28;45589;-49
2024/02/27 10:57:49;;;;;;;;;22.67;19.00;;;;;;;;5077387;28;45353;-51
2024/02/27 11:00:15;;;;;;;;;22.00;20.33;;;;;;;;5078448;27;45383;-48
2024/02/27 11:02:44;;;;;;;;;24.33;21.00;;;;;;;;5074770;28;45356;-51
2024/02/27 11:05:10;;;;;;;;;26.00;22.67;;;;;;;;5071388;27;45503;-48
2024/02/27 11:07:35;;;;;;;;;24.33;22.33;;;;;;;;5094243;27;47274;-51
2024/02/27 11:10:01;;;;;;;;;19.00;18.00;;;;;;;;5099122;27;45340;-50
2024/02/27 11:12:27;;;;;;;;;17.67;17.67;;;;;;;;5096381;27;45488;-52
2024/02/27 11:14:58;;;;;;;;;14.00;13.67;;;;;;;;5099463;27;45293;-48
2024/02/27 11:17:25;;;;;;;;;21.67;19.33;;;;;;;;5097107;27;45764;-48
2024/02/27 11:19:52;;;;;;;;;21.33;16.67;;;;;;;;5080686;27;45588;-48
2024/02/27 11:22:18;;;;;;;;;20.67;20.67;;;;;;;;5094696;27;45342;-49
2024/02/27 11:24:45;;;;;;;;;20.67;19.00;;;;;;;;5099128;27;45318;-50
2024/02/27 11:27:11;;;;;;;;;21.33;19.00;;;;;;;;5096875;27;47239;-49
2024/02/27 11:29:37;;;;;;;;;26.33;23.67;;;;;;;;5098741;27;45378;-49
2024/02/27 11:32:02;;;;;;;;;19.00;19.00;;;;;;;;5096829;27;45253;-49
2024/02/27 11:34:30;;;;;;;;;16.67;16.67;;;;;;;;5099180;27;45486;-48
2024/02/27 11:37:15;;;;;;;;;24.33;22.33;;;;;;;;5097061;27;45691;-51
2024/02/27 11:39:41;;;;;;;;;16.33;15.00;;;;;;;;5097153;27;45416;-49
2024/02/27 11:42:08;;;;;;;;;18.67;17.67;;;;;;;;5098605;27;45299;-52
2024/02/27 11:44:53;;;;;;;;;20.00;18.33;;;;;;;;5097674;27;45242;-52
2024/02/27 11:47:34;;;;;;;;;22.33;21.00;;;;;;;;5070442;27;46395;-51
2024/02/27 11:49:59;;;;;;;;;26.67;20.33;;;;;;;;5079942;27;45242;-52
2024/02/27 11:52:24;;;;;;;;;19.67;18.00;;;;;;;;5079417;27;45346;-50
2024/02/27 11:54:49;;;;;;;;;23.33;21.67;;;;;;;;5080553;27;45258;-49
2024/02/27 11:57:15;;;;;;;;;22.00;22.00;;;;;;;;5079541;27;46360;-50
2024/02/27 11:59:40;;;;;;;;;16.33;16.33;;;;;;;;5080495;27;45421;-49
2024/02/27 12:02:06;;;;;;;;;18.67;18.00;;;;;;;;5079414;27;45245;-49
2024/02/27 12:04:31;;;;;;;;;22.67;21.67;;;;;;;;5074602;27;45280;-51
2024/02/27 12:06:56;;;;;;;;;22.00;20.33;;;;;;;;5086269;27;46256;-50
2024/02/27 12:09:24;;;;;;;;;21.00;21.00;;;;;;;;5095360;27;45222;-52
2024/02/27 12:11:49;;;;;;;;;21.67;21.00;;;;;;;;5099048;27;45388;-50
2024/02/27 12:14:14;;;;;;;;;22.00;19.67;;;;;;;;5096793;27;45327;-49
2024/02/27 12:16:41;;;;;;;;;20.33;16.67;;;;;;;;5098067;27;45483;-51
2024/02/27 12:19:06;;;;;;;;;24.33;24.33;;;;;;;;5088068;27;45369;-50
2024/02/27 12:21:33;;;;;;;;;21.33;19.67;;;;;;;;5098324;27;45340;-48
2024/02/27 12:24:27;;;;;;;;;22.67;21.33;;;;;;;;5096823;27;46071;-50
2024/02/27 12:26:57;;;;;;;;;35.33;30.00;;;;;;;;5066853;27;45734;-50
2024/02/27 12:29:24;;;;;;;;;27.00;24.67;;;;;;;;5097675;27;45466;-48
2024/02/27 12:31:49;;;;;;;;;25.33;21.67;;;;;;;;5100276;27;45327;-49
2024/02/27 12:34:14;;;;;;;;;30.00;25.67;;;;;;;;5101448;27;45423;-50
2024/02/27 12:36:39;;;;;;;;;18.67;17.67;;;;;;;;5100041;27;45476;-49
2024/02/27 12:39:05;;;;;;;;;27.00;24.33;;;;;;;;5100091;27;45923;-48
2024/02/27 12:41:30;;;;;;;;;26.67;24.67;;;;;;;;5100163;27;45500;-51
2024/02/27 12:43:55;;;;;;;;;26.67;25.67;;;;;;;;5101988;27;45365;-49
2024/02/27 12:46:21;;;;;;;;;18.00;18.00;;;;;;;;5087423;27;45424;-51
2024/02/27 12:48:47;;;;;;;;;28.00;24.67;;;;;;;;5091407;27;45372;-51
2024/02/27 12:51:13;;;;;;;;;24.00;20.33;;;;;;;;5081729;27;45299;-47
2024/02/27 12:53:39;;;;;;;;;23.00;21.00;;;;;;;;5082385;27;45343;-47
2024/02/27 12:56:05;;;;;;;;;21.67;21.67;;;;;;;;5081529;27;45409;-48
2024/02/27 12:58:30;;;;;;;;;25.33;23.33;;;;;;;;5082079;27;45322;-50
2024/02/27 13:00:56;;;;;;;;;31.00;25.67;;;;;;;;5082780;27;45349;-49
2024/02/27 13:03:24;;;;;;;;;26.00;25.00;;;;;;;;5080900;27;45481;-49
2024/02/27 13:05:49;;;;;;;;;32.33;25.33;;;;;;;;5074140;27;45543;-52
2024/02/27 13:08:14;;;;;;;;;25.33;23.33;;;;;;;;5100699;27;45336;-49
2024/02/27 13:10:40;;;;;;;;;30.67;25.00;;;;;;;;5098129;27;45363;-49
2024/02/27 13:13:18;;;;;;;;;25.00;22.00;;;;;;;;5089827;27;45702;-48
2024/02/27 13:15:44;;;;;;;;;26.67;24.00;;;;;;;;5099651;27;46454;-49
2024/02/27 13:18:10;;;;;;;;;31.67;28.33;;;;;;;;5093611;27;45340;-50
2024/02/27 13:20:36;;;;;;;;;23.33;21.67;;;;;;;;5097265;27;45297;-51
2024/02/27 13:23:01;;;;;;;;;24.00;23.33;;;;;;;;5099262;27;45262;-49
2024/02/27 13:25:26;;;;;;;;;29.33;23.00;;;;;;;;5099436;27;45280;-49
2024/02/27 13:27:52;;;;;;;;;24.00;23.00;;;;;;;;5100684;27;45425;-51
2024/02/27 13:30:17;;;;;;;;;35.00;29.00;;;;;;;;5098893;27;45444;-48
2024/02/27 13:32:42;;;;;;;;;32.33;26.33;;;;;;;;5100401;27;45273;-50
2024/02/27 13:35:07;;;;;;;;;26.67;22.33;;;;;;;;5098853;27;45400;-49
2024/02/27 13:37:33;;;;;;;;;26.00;23.00;;;;;;;;5100660;27;45295;-51
2024/02/27 13:39:58;;;;;;;;;26.67;21.67;;;;;;;;5097939;27;45293;-48
2024/02/27 13:42:23;;;;;;;;;26.33;22.33;;;;;;;;5099412;27;45619;-51
2024/02/27 13:44:48;;;;;;;;;23.33;22.00;;;;;;;;5098872;27;45593;-47
2024/02/27 13:47:13;;;;;;;;;17.33;16.33;;;;;;;;5091100;27;45384;-49
2024/02/27 13:49:39;;;;;;;;;18.00;17.00;;;;;;;;5099102;27;45618;-47
2024/02/27 13:52:04;;;;;;;;;17.33;15.67;;;;;;;;5100239;27;45232;-48
2024/02/27 13:54:30;;;;;;;;;23.00;21.33;;;;;;;;5095271;27;45413;-48
2024/02/27 13:56:55;;;;;;;;;23.00;20.00;;;;;;;;5091606;27;45361;-50
2024/02/27 13:59:21;;;;;;;;;21.33;18.67;;;;;;;;5094768;27;45476;-48
2024/02/27 14:01:46;;;;;;;;;22.00;17.00;;;;;;;;5081888;27;45433;-48
2024/02/27 14:04:12;;;;;;;;;27.67;20.00;;;;;;;;5077094;27;45337;-49
2024/02/27 14:06:37;;;;;;;;;21.00;19.00;;;;;;;;5073972;27;45677;-47
2024/02/27 14:09:02;;;;;;;;;16.33;14.67;;;;;;;;5082506;27;45406;-49